Time;durP1;ratioP1;P1;durP2;ratioP2;P2;SDS_P1;SDS_P2;PMS_P1;PMS_P2;Temp;Humidity;BMP_temperature;BMP_pressure;BME280_temperature;BME280_humidity;BME280_pressure;Samples;Min_cycle;Max_cycle;Signal;HPM_P1;HPM_P2
2022/11/27 00:00:33;;;;;;;3.53;0.90;;;4.80;93.40;;;;;;5047414;28;20455;-71
2022/11/27 00:02:59;;;;;;;2.42;0.90;;;4.80;93.40;;;;;;5051709;28;20600;-72
2022/11/27 00:05:24;;;;;;;2.47;1.13;;;4.80;93.50;;;;;;5059624;28;20036;-72
2022/11/27 00:07:50;;;;;;;3.50;1.33;;;4.70;94.00;;;;;;5061551;28;20528;-71
2022/11/27 00:10:16;;;;;;;2.75;1.15;;;4.60;93.60;;;;;;5059495;28;20036;-72
2022/11/27 00:12:41;;;;;;;3.25;0.93;;;4.60;93.60;;;;;;5053798;28;20364;-72
2022/11/27 00:15:07;;;;;;;2.08;0.82;;;4.40;93.90;;;;;;5046499;28;20048;-71
2022/11/27 00:17:33;;;;;;;2.17;0.93;;;4.30;94.30;;;;;;5050565;28;20048;-71
2022/11/27 00:19:59;;;;;;;4.00;0.90;;;4.60;93.70;;;;;;5057669;28;20037;-71
2022/11/27 00:22:25;;;;;;;2.15;0.82;;;4.80;93.50;;;;;;5056074;28;20050;-71
2022/11/27 00:24:51;;;;;;;3.92;1.20;;;4.80;93.20;;;;;;5058802;28;20032;-71
2022/11/27 00:27:16;;;;;;;3.90;1.30;;;4.90;93.30;;;;;;5060036;28;20032;-72
2022/11/27 00:29:42;;;;;;;3.17;1.15;;;4.90;93.00;;;;;;5062993;28;20028;-72
2022/11/27 00:32:08;;;;;;;2.40;1.20;;;4.70;93.40;;;;;;5057049;28;20028;-71
2022/11/27 00:34:34;;;;;;;4.00;1.30;;;4.60;93.70;;;;;;5062170;28;20060;-71
2022/11/27 00:36:59;;;;;;;3.30;1.30;;;4.60;93.70;;;;;;5062747;28;20020;-71
2022/11/27 00:39:26;;;;;;;3.10;1.30;;;4.40;93.90;;;;;;5056941;28;20036;-71
2022/11/27 00:41:52;;;;;;;3.83;1.20;;;4.40;93.90;;;;;;5054577;28;20431;-71
2022/11/27 00:44:18;;;;;;;3.78;1.63;;;4.50;93.90;;;;;;5058196;28;20039;-71
2022/11/27 00:46:44;;;;;;;4.00;1.15;;;4.50;94.10;;;;;;5064600;28;20429;-71
2022/11/27 00:49:12;;;;;;;4.95;1.60;;;4.40;93.90;;;;;;5062169;28;20053;-71
2022/11/27 00:51:39;;;;;;;2.95;1.17;;;4.30;94.20;;;;;;5066020;28;20023;-71
2022/11/27 00:54:05;;;;;;;3.95;1.55;;;4.30;94.10;;;;;;5057459;28;20025;-72
2022/11/27 00:56:38;;;;;;;2.90;1.00;;;4.40;94.00;;;;;;5066186;28;20028;-71
2022/11/27 00:59:05;;;;;;;2.55;0.98;;;4.20;94.30;;;;;;5058495;28;20863;-71
2022/11/27 01:01:35;;;;;;;1.88;0.93;;;4.10;94.50;;;;;;5055092;28;20052;-72
2022/11/27 01:04:02;;;;;;;3.20;1.10;;;3.90;94.70;;;;;;5060389;28;20115;-71
2022/11/27 01:06:29;;;;;;;3.03;1.35;;;3.90;95.00;;;;;;5060846;28;20033;-71
2022/11/27 01:08:55;;;;;;;3.17;1.02;;;4.10;94.80;;;;;;5066280;28;20771;-71
2022/11/27 01:11:24;;;;;;;3.92;1.30;;;4.20;94.40;;;;;;5061324;28;20094;-71
2022/11/27 01:13:51;;;;;;;3.95;1.17;;;4.40;94.00;;;;;;5055571;28;20021;-71
2022/11/27 01:16:19;;;;;;;3.75;1.35;;;4.30;94.10;;;;;;5051707;28;20045;-71
2022/11/27 01:18:47;;;;;;;2.15;1.20;;;4.20;94.10;;;;;;5059800;28;20035;-71
2022/11/27 01:21:15;;;;;;;1.95;0.85;;;4.10;94.30;;;;;;5070526;28;20036;-71
2022/11/27 01:23:40;;;;;;;3.33;0.98;;;4.30;93.80;;;;;;5061809;28;20071;-71
2022/11/27 01:26:09;;;;;;;2.17;0.90;;;4.20;94.30;;;;;;5057558;28;20086;-71
2022/11/27 01:28:35;;;;;;;2.90;1.20;;;4.20;94.10;;;;;;5055211;28;20025;-71
2022/11/27 01:31:11;;;;;;;2.05;0.77;;;4.40;93.90;;;;;;5062677;28;20025;-71
2022/11/27 01:33:36;;;;;;;2.15;1.00;;;4.30;94.00;;;;;;5062667;28;20033;-71
2022/11/27 01:36:05;;;;;;;2.08;1.10;;;4.40;93.90;;;;;;5054848;28;20056;-71
2022/11/27 01:38:31;;;;;;;2.00;1.10;;;4.40;93.90;;;;;;5053920;28;20068;-71
2022/11/27 01:41:04;;;;;;;1.77;0.68;;;4.40;94.00;;;;;;5051520;28;20045;-71
2022/11/27 01:43:49;;;;;;;3.90;1.02;;;4.40;93.80;;;;;;5055464;28;20037;-71
2022/11/27 01:46:33;;;;;;;;;;;4.50;93.70;;;;;;5059180;28;20100;-71
2022/11/27 01:49:21;;;;;;;1.77;0.75;;;4.20;94.10;;;;;;5057804;28;19912;-71
2022/11/27 01:51:55;;;;;;;4.65;1.77;;;4.30;94.00;;;;;;5050193;28;20429;-71
2022/11/27 01:54:23;;;;;;;3.08;1.27;;;4.00;94.50;;;;;;5057018;28;20047;-71
2022/11/27 01:56:55;;;;;;;2.72;1.10;;;4.00;94.50;;;;;;5060073;28;20082;-71
2022/11/27 01:59:21;;;;;;;4.68;1.88;;;4.10;94.50;;;;;;5059340;28;20020;-71
2022/11/27 02:01:47;;;;;;;3.08;1.10;;;4.10;94.70;;;;;;5064787;28;20038;-71
2022/11/27 02:04:13;;;;;;;1.85;0.80;;;3.90;94.60;;;;;;5050879;28;20028;-71
2022/11/27 02:06:39;;;;;;;1.65;0.77;;;3.50;95.10;;;;;;5055850;28;20040;-71
2022/11/27 02:09:05;;;;;;;1.85;0.85;;;3.30;95.50;;;;;;5053983;28;20029;-71
2022/11/27 02:11:35;;;;;;;2.72;0.88;;;3.30;95.60;;;;;;5064528;28;20036;-71
2022/11/27 02:14:10;;;;;;;4.43;0.90;;;3.20;95.60;;;;;;5054294;28;20529;-71
2022/11/27 02:16:40;;;;;;;;;;;3.30;95.70;;;;;;5051448;28;20060;-71
2022/11/27 02:19:17;;;;;;;3.03;0.80;;;3.20;95.90;;;;;;5058544;28;19969;-71
2022/11/27 02:22:24;;;;;;;2.78;1.05;;;3.10;96.10;;;;;;5057294;28;20076;-71
2022/11/27 02:25:12;;;;;;;2.05;0.80;;;3.10;95.90;;;;;;5053507;28;20037;-71
2022/11/27 02:27:59;;;;;;;2.92;0.63;;;3.30;95.50;;;;;;5056310;28;20021;-71
2022/11/27 02:30:26;;;;;;;4.60;0.85;;;3.30;95.60;;;;;;5077439;28;20441;-71
2022/11/27 02:33:01;;;;;;;2.53;0.80;;;3.20;95.80;;;;;;5062051;28;20028;-71
2022/11/27 02:35:50;;;;;;;2.00;0.85;;;3.20;96.00;;;;;;5056802;28;20025;-71
2022/11/27 02:38:31;;;;;;;3.00;0.63;;;3.10;96.60;;;;;;5067970;28;20035;-71
2022/11/27 02:41:32;;;;;;;2.05;0.70;;;3.00;96.20;;;;;;5060126;28;20059;-71
2022/11/27 02:44:01;;;;;;;3.63;0.77;;;3.10;96.40;;;;;;4967781;28;20043;-71
2022/11/27 02:46:28;;;;;;;1.73;0.88;;;3.10;96.20;;;;;;5039756;28;20067;-71
2022/11/27 02:48:57;;;;;;;2.33;0.93;;;3.10;96.20;;;;;;5059196;28;20124;-71
2022/11/27 02:51:27;;;;;;;2.60;1.15;;;3.00;96.30;;;;;;5061830;28;20475;-71
2022/11/27 02:53:57;;;;;;;3.17;0.90;;;3.00;96.60;;;;;;5058200;28;20025;-71
2022/11/27 02:56:27;;;;;;;2.40;1.00;;;3.00;96.30;;;;;;5055889;28;20471;-71
2022/11/27 02:58:57;;;;;;;2.58;1.00;;;3.20;96.00;;;;;;5056255;28;20029;-71
2022/11/27 03:01:25;;;;;;;1.55;0.73;;;3.30;95.60;;;;;;5058326;28;20041;-71
2022/11/27 03:03:55;;;;;;;1.63;0.85;;;3.40;95.50;;;;;;5050343;28;20075;-71
2022/11/27 03:06:28;;;;;;;0.93;0.73;;;3.30;95.50;;;;;;5063160;28;20154;-71
2022/11/27 03:09:09;;;;;;;1.15;0.68;;;3.10;96.10;;;;;;5064798;28;20083;-71
2022/11/27 03:11:35;;;;;;;2.13;1.23;;;3.10;95.90;;;;;;5058515;28;20442;-71
2022/11/27 03:14:05;;;;;;;3.17;0.88;;;2.90;96.30;;;;;;5054548;28;20032;-71
2022/11/27 03:17:08;;;;;;;1.40;0.73;;;2.80;96.90;;;;;;5052465;28;20547;-71
2022/11/27 03:20:02;;;;;;;2.25;0.70;;;3.00;96.30;;;;;;5059904;28;20059;-71
2022/11/27 03:22:30;;;;;;;2.95;0.80;;;3.10;95.90;;;;;;5061164;28;20035;-71
2022/11/27 03:24:56;;;;;;;2.75;0.90;;;3.10;96.20;;;;;;5060325;28;21476;-71
2022/11/27 03:27:28;;;;;;;1.25;0.47;;;3.10;95.80;;;;;;5065703;28;20043;-71
2022/11/27 03:29:57;;;;;;;1.58;0.80;;;3.20;95.70;;;;;;5056154;28;20056;-71
2022/11/27 03:32:24;;;;;;;2.95;1.00;;;3.10;95.80;;;;;;5053695;28;20111;-71
2022/11/27 03:34:50;;;;;;;2.30;0.90;;;2.80;96.40;;;;;;5049428;28;20058;-71
2022/11/27 03:37:16;;;;;;;2.95;0.75;;;2.90;96.50;;;;;;5047849;28;20036;-71
2022/11/27 03:39:42;;;;;;;2.97;0.85;;;2.80;96.30;;;;;;5053776;28;20471;-71
2022/11/27 03:42:23;;;;;;;2.22;1.08;;;2.80;96.60;;;;;;5056647;28;20032;-71
2022/11/27 03:45:07;;;;;;;2.55;1.05;;;2.90;96.30;;;;;;5059045;28;20063;-71
2022/11/27 03:47:52;;;;;;;2.60;1.03;;;2.50;97.30;;;;;;5057791;28;20433;-71
2022/11/27 03:50:40;;;;;;;1.80;0.80;;;2.60;97.00;;;;;;5058810;28;20036;-71
2022/11/27 03:53:36;;;;;;;2.28;0.90;;;2.40;97.50;;;;;;5055889;28;20032;-71
2022/11/27 03:56:22;;;;;;;2.15;0.80;;;2.60;97.40;;;;;;5054765;28;20426;-71
2022/11/27 03:59:00;;;;;;;2.47;0.82;;;2.60;97.10;;;;;;5023920;28;20029;-71
2022/11/27 04:01:27;;;;;;;2.47;1.08;;;2.90;96.60;;;;;;5052859;28;20039;-70
2022/11/27 04:03:53;;;;;;;2.83;1.13;;;2.90;96.40;;;;;;5050550;28;20025;-70
2022/11/27 04:06:18;;;;;;;3.63;0.82;;;2.90;96.30;;;;;;5048896;28;20248;-70
2022/11/27 04:08:46;;;;;;;1.65;0.82;;;2.70;96.80;;;;;;5059137;28;20032;-70
2022/11/27 04:11:12;;;;;;;2.13;0.82;;;2.70;96.90;;;;;;5045520;28;20505;-70
2022/11/27 04:13:38;;;;;;;2.70;1.05;;;2.50;97.20;;;;;;5047830;28;20179;-70
2022/11/27 04:16:04;;;;;;;5.53;0.98;;;2.50;97.50;;;;;;5056815;28;20477;-70
2022/11/27 04:18:29;;;;;;;2.83;0.90;;;2.60;97.30;;;;;;5048284;28;20047;-70
2022/11/27 04:20:55;;;;;;;2.38;0.80;;;2.70;97.70;;;;;;5051547;28;20044;-70
2022/11/27 04:23:21;;;;;;;4.40;0.88;;;2.70;97.00;;;;;;5060113;28;20043;-70
2022/11/27 04:25:48;;;;;;;2.50;0.82;;;2.70;97.10;;;;;;5051027;28;20536;-70
2022/11/27 04:28:13;;;;;;;1.13;0.60;;;2.80;96.70;;;;;;5052405;28;20044;-70
2022/11/27 04:30:39;;;;;;;4.53;0.95;;;3.00;96.70;;;;;;5049442;28;20030;-70
2022/11/27 04:33:05;;;;;;;1.98;0.80;;;2.80;96.70;;;;;;5054939;28;20511;-70
2022/11/27 04:35:31;;;;;;;1.55;0.70;;;2.70;97.20;;;;;;5050417;28;20052;-70
2022/11/27 04:37:57;;;;;;;1.63;0.80;;;2.50;97.30;;;;;;5053437;28;20037;-70
2022/11/27 04:40:22;;;;;;;3.53;1.00;;;2.70;97.00;;;;;;5054111;28;20041;-70
2022/11/27 04:42:49;;;;;;;1.85;0.57;;;2.70;96.90;;;;;;5056258;28;20025;-70
2022/11/27 04:45:15;;;;;;;1.17;0.65;;;2.70;96.90;;;;;;5059057;28;20080;-70
2022/11/27 04:47:40;;;;;;;3.05;1.02;;;2.80;96.60;;;;;;5059841;28;20056;-70
2022/11/27 04:50:07;;;;;;;2.38;1.00;;;2.80;96.60;;;;;;5063613;28;20181;-70
2022/11/27 04:52:32;;;;;;;1.65;0.43;;;2.60;96.80;;;;;;5066032;28;20036;-70
2022/11/27 04:54:58;;;;;;;1.88;0.80;;;2.60;96.80;;;;;;5048303;28;20032;-70
2022/11/27 04:57:24;;;;;;;1.83;0.85;;;2.70;96.80;;;;;;5057885;28;20032;-70
2022/11/27 04:59:49;;;;;;;2.60;0.80;;;2.60;96.80;;;;;;5056003;28;20126;-71
2022/11/27 05:02:15;;;;;;;1.73;0.70;;;2.60;96.90;;;;;;5058036;28;20021;-70
2022/11/27 05:04:41;;;;;;;2.30;0.60;;;2.50;97.00;;;;;;5054706;28;20025;-70
2022/11/27 05:07:06;;;;;;;2.72;1.02;;;2.40;97.10;;;;;;5050059;28;20032;-70
2022/11/27 05:09:32;;;;;;;1.38;0.68;;;2.20;97.60;;;;;;5047846;28;20457;-70
2022/11/27 05:11:57;;;;;;;3.30;0.70;;;2.10;97.70;;;;;;5062170;28;20564;-70
2022/11/27 05:14:27;;;;;;;1.85;0.80;;;2.20;97.90;;;;;;5053251;28;20103;-70
2022/11/27 05:16:56;;;;;;;2.97;0.80;;;2.50;97.10;;;;;;5051717;28;20041;-70
2022/11/27 05:19:23;;;;;;;3.05;0.70;;;2.30;97.40;;;;;;5046875;28;21216;-70
2022/11/27 05:21:50;;;;;;;3.35;1.23;;;2.20;97.80;;;;;;5063493;28;20241;-70
2022/11/27 05:24:16;;;;;;;1.42;0.45;;;2.10;98.00;;;;;;5052704;28;20471;-70
2022/11/27 05:26:43;;;;;;;4.07;1.27;;;2.10;98.20;;;;;;5054228;28;20662;-70
2022/11/27 05:29:10;;;;;;;2.45;0.80;;;2.20;97.80;;;;;;5046772;28;20094;-70
2022/11/27 05:31:36;;;;;;;4.13;1.00;;;2.20;97.80;;;;;;5051537;28;20463;-70
2022/11/27 05:34:02;;;;;;;1.52;0.52;;;2.10;98.10;;;;;;5052453;28;20037;-70
2022/11/27 05:36:28;;;;;;;1.75;0.70;;;2.20;97.80;;;;;;5046109;28;20035;-70
2022/11/27 05:38:54;;;;;;;2.35;0.52;;;2.30;97.50;;;;;;5059886;28;20567;-70
2022/11/27 05:41:20;;;;;;;2.22;0.80;;;2.00;97.80;;;;;;5053407;28;20041;-70
2022/11/27 05:43:46;;;;;;;1.83;0.60;;;2.10;97.90;;;;;;5048077;28;20033;-70
2022/11/27 05:46:14;;;;;;;3.00;0.85;;;2.10;97.70;;;;;;5060418;28;20043;-70
2022/11/27 05:48:40;;;;;;;1.30;0.63;;;2.00;98.10;;;;;;5056117;28;20056;-70
2022/11/27 05:51:06;;;;;;;1.65;0.63;;;2.10;97.80;;;;;;5062341;28;20475;-70
2022/11/27 05:53:32;;;;;;;1.38;0.60;;;2.20;97.50;;;;;;5054064;28;20111;-70
2022/11/27 05:56:13;;;;;;;5.22;1.60;;;2.20;97.50;;;;;;5057433;28;20033;-70
2022/11/27 05:58:40;;;;;;;3.00;1.00;;;2.10;97.70;;;;;;5054660;28;20056;-70
2022/11/27 06:01:06;;;;;;;2.75;1.00;;;2.10;97.70;;;;;;5052365;28;20079;-70
2022/11/27 06:03:32;;;;;;;4.53;1.20;;;2.00;98.00;;;;;;5051842;28;20029;-70
2022/11/27 06:06:03;;;;;;;2.05;0.95;;;2.00;98.30;;;;;;5035491;28;20055;-71
2022/11/27 06:08:29;;;;;;;4.45;1.27;;;1.90;98.20;;;;;;5051455;28;20048;-70
2022/11/27 06:10:55;;;;;;;1.83;0.60;;;2.30;97.60;;;;;;5053140;28;20029;-70
2022/11/27 06:13:20;;;;;;;1.95;0.82;;;2.40;97.30;;;;;;5052104;28;20032;-70
2022/11/27 06:15:46;;;;;;;1.95;0.75;;;2.40;97.30;;;;;;5049665;28;20112;-69
2022/11/27 06:18:12;;;;;;;3.00;0.70;;;2.40;97.10;;;;;;5054737;28;20029;-70
2022/11/27 06:20:37;;;;;;;2.35;0.73;;;2.50;97.00;;;;;;5051904;28;20048;-70
2022/11/27 06:23:03;;;;;;;1.27;0.45;;;2.40;97.00;;;;;;5052271;28;20060;-70
2022/11/27 06:25:29;;;;;;;1.23;0.50;;;2.30;97.30;;;;;;5054593;28;20025;-70
2022/11/27 06:27:55;;;;;;;1.95;0.65;;;2.30;97.30;;;;;;5055983;28;20115;-70
2022/11/27 06:30:20;;;;;;;1.38;0.70;;;2.30;97.30;;;;;;5063634;28;20612;-70
2022/11/27 06:32:46;;;;;;;1.77;0.77;;;2.20;97.40;;;;;;5051468;28;20471;-70
2022/11/27 06:35:12;;;;;;;1.67;0.77;;;2.10;97.50;;;;;;5052949;28;20109;-70
2022/11/27 06:37:37;;;;;;;2.03;0.95;;;2.20;97.50;;;;;;5054227;28;20041;-70
2022/11/27 06:40:04;;;;;;;2.60;1.05;;;2.30;97.50;;;;;;5042156;28;20043;-70
2022/11/27 06:42:30;;;;;;;2.80;0.70;;;2.30;97.30;;;;;;5047130;28;20103;-70
2022/11/27 06:44:56;;;;;;;1.27;0.60;;;2.30;97.40;;;;;;5050492;28;20039;-70
2022/11/27 06:47:22;;;;;;;2.17;0.80;;;2.20;97.50;;;;;;5051636;28;20044;-70
2022/11/27 06:49:48;;;;;;;1.77;0.80;;;2.20;97.60;;;;;;5044147;28;20060;-70
2022/11/27 06:52:14;;;;;;;2.38;0.90;;;2.30;97.20;;;;;;5052001;28;20025;-71
2022/11/27 06:54:39;;;;;;;2.38;0.82;;;2.60;96.70;;;;;;5047719;28;20624;-70
2022/11/27 06:57:05;;;;;;;2.40;1.20;;;2.50;96.80;;;;;;5053963;28;20680;-70
2022/11/27 06:59:30;;;;;;;2.35;0.80;;;2.20;97.30;;;;;;5054021;28;20550;-70
2022/11/27 07:01:56;;;;;;;4.35;1.00;;;2.20;97.60;;;;;;5055165;28;20402;-70
2022/11/27 07:04:22;;;;;;;1.95;0.80;;;1.90;98.00;;;;;;5050675;28;20035;-70
2022/11/27 07:06:47;;;;;;;3.15;1.10;;;2.20;97.70;;;;;;5050704;28;20060;-70
2022/11/27 07:09:14;;;;;;;1.65;0.68;;;2.50;97.10;;;;;;5042511;28;20104;-70
2022/11/27 07:11:40;;;;;;;2.17;0.95;;;2.30;97.20;;;;;;5052693;28;20032;-70
2022/11/27 07:14:06;;;;;;;1.33;0.63;;;2.20;97.60;;;;;;5042909;28;20040;-70
2022/11/27 07:16:34;;;;;;;1.85;0.70;;;2.10;97.80;;;;;;5043352;28;20053;-70
2022/11/27 07:19:02;;;;;;;2.92;1.08;;;2.00;97.80;;;;;;5053174;28;20478;-70
2022/11/27 07:21:28;;;;;;;5.63;1.20;;;2.00;97.80;;;;;;5054707;28;20033;-70
2022/11/27 07:23:57;;;;;;;2.78;1.13;;;2.10;97.90;;;;;;5053656;28;20243;-71
2022/11/27 07:26:26;;;;;;;3.78;1.45;;;2.10;97.70;;;;;;5048892;28;20025;-70
2022/11/27 07:28:52;;;;;;;2.67;1.30;;;2.10;97.90;;;;;;5045418;28;20482;-70
2022/11/27 07:31:25;;;;;;;1.88;0.95;;;2.10;98.00;;;;;;5046610;28;20036;-70
2022/11/27 07:33:51;;;;;;;2.67;0.98;;;2.20;97.90;;;;;;5046073;28;20042;-70
2022/11/27 07:36:22;;;;;;;3.42;0.95;;;2.20;97.90;;;;;;5047518;28;20040;-70
2022/11/27 07:38:48;;;;;;;5.57;0.73;;;2.20;97.80;;;;;;5042093;28;20021;-70
2022/11/27 07:41:14;;;;;;;49.30;34.55;;;2.20;97.80;;;;;;5052512;28;20064;-70
2022/11/27 07:43:41;;;;;;;4.45;2.05;;;2.60;97.00;;;;;;5055743;28;20028;-70
2022/11/27 07:46:11;;;;;;;1.90;0.90;;;2.70;96.80;;;;;;5043202;28;20025;-70
2022/11/27 07:48:37;;;;;;;4.53;1.50;;;2.80;96.70;;;;;;5049429;28;20524;-70
2022/11/27 07:51:07;;;;;;;3.20;1.45;;;2.80;96.90;;;;;;5048603;28;20060;-71
2022/11/27 07:53:37;;;;;;;3.90;1.70;;;2.60;97.50;;;;;;5055647;28;20573;-70
2022/11/27 07:56:04;;;;;;;5.13;1.70;;;2.50;97.30;;;;;;5060587;28;20041;-70
2022/11/27 07:58:30;;;;;;;3.22;1.45;;;2.50;97.30;;;;;;5058629;28;20040;-69
2022/11/27 08:00:56;;;;;;;10.10;5.13;;;2.60;97.30;;;;;;5045565;28;20033;-70
2022/11/27 08:03:22;;;;;;;3.78;1.90;;;2.50;97.50;;;;;;5049706;28;20417;-69
2022/11/27 08:05:48;;;;;;;5.00;1.30;;;2.80;96.90;;;;;;5045818;28;20029;-71
2022/11/27 08:08:13;;;;;;;2.00;0.70;;;2.90;96.30;;;;;;5056495;28;20029;-70
2022/11/27 08:10:39;;;;;;;1.98;0.90;;;3.20;95.90;;;;;;5031485;28;20058;-70
2022/11/27 08:13:05;;;;;;;4.68;2.08;;;3.10;96.30;;;;;;5008008;28;20042;-70
2022/11/27 08:15:31;;;;;;;5.95;2.53;;;3.00;96.90;;;;;;5018044;28;20396;-71
2022/11/27 08:17:57;;;;;;;11.15;6.53;;;2.90;97.10;;;;;;5025045;28;20051;-70
2022/11/27 08:20:23;;;;;;;7.22;4.10;;;2.60;97.80;;;;;;5023851;28;20052;-70
2022/11/27 08:22:49;;;;;;;20.83;11.57;;;2.70;98.00;;;;;;5024067;28;20113;-70
2022/11/27 08:25:15;;;;;;;4.63;2.28;;;2.70;97.80;;;;;;5018941;28;20034;-71
2022/11/27 08:27:41;;;;;;;4.00;1.83;;;2.60;98.60;;;;;;5021730;28;20041;-70
2022/11/27 08:30:08;;;;;;;7.18;3.38;;;2.50;98.50;;;;;;5020079;28;20617;-70
2022/11/27 08:32:36;;;;;;;6.03;3.33;;;2.30;99.00;;;;;;5023240;28;20534;-70
2022/11/27 08:35:02;;;;;;;9.43;4.45;;;2.30;98.60;;;;;;5020899;28;20472;-71
2022/11/27 08:37:28;;;;;;;12.38;7.72;;;2.40;98.60;;;;;;5022828;28;20041;-72
2022/11/27 08:39:53;;;;;;;9.10;4.60;;;2.40;99.50;;;;;;5021976;28;20037;-71
2022/11/27 08:42:19;;;;;;;7.60;4.88;;;2.40;99.50;;;;;;5017874;28;20487;-71
2022/11/27 08:44:45;;;;;;;7.20;2.90;;;2.30;99.70;;;;;;5016457;28;20053;-71
2022/11/27 08:47:10;;;;;;;4.40;2.17;;;2.40;99.90;;;;;;5016734;28;20057;-71
2022/11/27 08:49:36;;;;;;;6.25;1.85;;;2.40;99.90;;;;;;5021308;28;20044;-70
2022/11/27 08:52:01;;;;;;;3.92;1.67;;;2.40;98.90;;;;;;5024313;28;20033;-70
2022/11/27 08:54:27;;;;;;;8.77;2.10;;;2.40;99.60;;;;;;5023761;28;20037;-70
2022/11/27 08:56:53;;;;;;;3.72;2.20;;;2.40;99.20;;;;;;5021388;28;20040;-70
2022/11/27 08:59:18;;;;;;;7.03;4.47;;;2.70;98.90;;;;;;5021993;28;20032;-70
2022/11/27 09:01:44;;;;;;;7.10;3.50;;;2.60;98.80;;;;;;5008656;28;20083;-70
2022/11/27 09:04:10;;;;;;;3.75;1.30;;;2.70;98.80;;;;;;5028046;28;20030;-71
2022/11/27 09:06:35;;;;;;;6.40;2.92;;;2.80;99.40;;;;;;5024983;28;21104;-70
2022/11/27 09:09:04;;;;;;;6.10;2.00;;;2.70;99.30;;;;;;5020278;28;20029;-70
2022/11/27 09:11:30;;;;;;;2.90;0.98;;;2.60;98.70;;;;;;5025052;28;20041;-70
2022/11/27 09:13:58;;;;;;;4.90;1.73;;;2.60;98.10;;;;;;5028029;28;20033;-70
2022/11/27 09:16:24;;;;;;;2.58;1.38;;;2.70;98.40;;;;;;5024359;28;20053;-70
2022/11/27 09:18:51;;;;;;;4.07;1.20;;;2.70;99.30;;;;;;5021217;28;20529;-70
2022/11/27 09:21:19;;;;;;;1.92;1.00;;;2.70;99.30;;;;;;5012898;28;20037;-70
2022/11/27 09:23:44;;;;;;;3.08;1.65;;;2.80;99.20;;;;;;5012090;28;20044;-70
2022/11/27 09:26:13;;;;;;;2.90;1.10;;;2.70;98.60;;;;;;5015253;28;20025;-70
2022/11/27 09:28:40;;;;;;;2.00;1.00;;;2.70;97.90;;;;;;5011667;28;20033;-70
2022/11/27 09:31:08;;;;;;;4.10;2.40;;;2.80;97.70;;;;;;5013236;28;20025;-70
2022/11/27 09:33:36;;;;;;;2.58;0.98;;;2.90;97.30;;;;;;5013818;28;20052;-70
2022/11/27 09:36:06;;;;;;;1.95;0.80;;;2.90;97.20;;;;;;5010060;28;20117;-70
2022/11/27 09:38:32;;;;;;;2.97;0.95;;;3.00;96.80;;;;;;5010833;28;20586;-70
2022/11/27 09:41:06;;;;;;;6.78;5.38;;;2.90;97.10;;;;;;5011621;28;20041;-70
2022/11/27 09:43:56;;;;;;;4.28;2.47;;;2.90;97.50;;;;;;5008744;28;20084;-71
2022/11/27 09:46:37;;;;;;;2.72;1.17;;;3.00;97.50;;;;;;5014810;28;20076;-71
2022/11/27 09:49:07;;;;;;;5.35;1.27;;;3.00;97.80;;;;;;5020773;28;20025;-70
2022/11/27 09:51:41;;;;;;;3.67;1.20;;;2.80;97.30;;;;;;5012222;28;20073;-70
2022/11/27 09:54:40;;;;;;;3.78;1.20;;;2.90;97.40;;;;;;5009185;28;20092;-70
2022/11/27 09:57:07;;;;;;;4.15;1.45;;;2.90;97.20;;;;;;5005305;28;20045;-71
2022/11/27 09:59:44;;;;;;;94.78;35.58;;;2.90;97.30;;;;;;5014250;28;20022;-71
2022/11/27 10:02:22;;;;;;;15.23;6.85;;;3.00;97.70;;;;;;5016544;28;20045;-70
2022/11/27 10:04:48;;;;;;;7.15;2.60;;;3.00;97.70;;;;;;5008383;28;20488;-70
2022/11/27 10:07:18;;;;;;;4.60;1.73;;;3.00;97.30;;;;;;5007325;28;20034;-70
2022/11/27 10:09:53;;;;;;;4.97;1.73;;;3.10;96.80;;;;;;5009343;28;20576;-70
2022/11/27 10:12:37;;;;;;;5.40;1.63;;;3.20;96.90;;;;;;5019167;28;20492;-70
2022/11/27 10:15:44;;;;;;;4.70;1.70;;;3.20;97.20;;;;;;5028133;28;20037;-70
2022/11/27 10:18:35;;;;;;;4.63;1.65;;;3.10;97.40;;;;;;5021501;28;20065;-70
2022/11/27 10:21:13;;;;;;;4.35;1.25;;;3.30;97.60;;;;;;5026408;28;20037;-70
2022/11/27 10:24:01;;;;;;;4.63;1.58;;;3.40;96.90;;;;;;5018936;28;20087;-71
2022/11/27 10:26:35;;;;;;;5.65;1.88;;;3.50;97.60;;;;;;5027926;28;20049;-70
2022/11/27 10:29:21;;;;;;;4.63;1.95;;;3.50;97.10;;;;;;5027173;28;20084;-70
2022/11/27 10:31:58;;;;;;;5.63;2.20;;;3.70;96.70;;;;;;5028038;28;20185;-70
2022/11/27 10:34:38;;;;;;;3.13;1.63;;;4.00;97.40;;;;;;5026803;28;20041;-70
2022/11/27 10:37:16;;;;;;;4.80;2.00;;;4.10;96.10;;;;;;5026846;28;20052;-70
2022/11/27 10:39:47;;;;;;;3.95;1.50;;;4.20;96.40;;;;;;5027231;28;20039;-70
2022/11/27 10:42:20;;;;;;;3.95;2.05;;;4.30;96.50;;;;;;5023596;28;20536;-70
2022/11/27 10:45:00;;;;;;;5.60;1.88;;;4.40;96.60;;;;;;5026841;28;20033;-70
2022/11/27 10:47:27;;;;;;;14.90;6.15;;;4.50;96.80;;;;;;5025976;28;20037;-71
2022/11/27 10:49:53;;;;;;;18.70;9.25;;;4.60;96.30;;;;;;5023360;28;20031;-70
2022/11/27 10:52:19;;;;;;;24.42;10.93;;;4.70;95.60;;;;;;5024573;28;20029;-70
2022/11/27 10:54:52;;;;;;;11.25;5.25;;;4.80;95.70;;;;;;5024437;28;20113;-70
2022/11/27 10:57:36;;;;;;;10.40;4.55;;;4.90;95.80;;;;;;5021187;28;20044;-70
2022/11/27 11:00:04;;;;;;;7.40;2.90;;;4.80;95.20;;;;;;5022969;28;20040;-71
2022/11/27 11:02:38;;;;;;;9.27;5.45;;;4.90;95.30;;;;;;5027198;28;20029;-70
2022/11/27 11:05:23;;;;;;;4.45;2.58;;;5.10;95.00;;;;;;5027367;28;20056;-70
2022/11/27 11:08:04;;;;;;;7.97;4.40;;;5.20;94.90;;;;;;5024610;28;20042;-70
2022/11/27 11:10:42;;;;;;;5.05;1.90;;;5.20;95.10;;;;;;5024042;28;20059;-72
2022/11/27 11:13:10;;;;;;;11.23;3.92;;;5.20;94.60;;;;;;5030154;28;20124;-72
2022/11/27 11:15:53;;;;;;;23.23;11.30;;;5.20;94.80;;;;;;5031432;28;20621;-70
2022/11/27 11:18:28;;;;;;;15.40;8.73;;;5.60;94.70;;;;;;5030137;28;20032;-71
2022/11/27 11:21:02;;;;;;;17.30;9.82;;;5.50;94.50;;;;;;5024584;28;20041;-71
2022/11/27 11:23:39;;;;;;;19.42;11.90;;;5.70;94.60;;;;;;5026917;28;20056;-71
2022/11/27 11:26:14;;;;;;;20.88;14.23;;;5.80;95.10;;;;;;5025821;28;20035;-70
2022/11/27 11:28:50;;;;;;;15.95;10.85;;;6.00;94.90;;;;;;5025804;28;20502;-70
2022/11/27 11:31:20;;;;;;;8.95;7.25;;;6.00;94.60;;;;;;5028056;28;20024;-70
2022/11/27 11:33:55;;;;;;;5.00;2.22;;;6.00;94.40;;;;;;5026312;28;20029;-72
2022/11/27 11:36:21;;;;;;;9.43;5.85;;;5.90;93.80;;;;;;5023957;28;20022;-71
2022/11/27 11:38:49;;;;;;;11.52;5.47;;;6.10;94.00;;;;;;5024962;28;20057;-71
2022/11/27 11:41:17;;;;;;;8.20;4.55;;;6.50;94.40;;;;;;5017581;28;20072;-71
2022/11/27 11:44:00;;;;;;;5.20;2.53;;;6.40;93.60;;;;;;5026327;28;20598;-71
2022/11/27 11:46:29;;;;;;;5.15;2.67;;;6.40;94.00;;;;;;5027415;28;20060;-71
2022/11/27 11:49:18;;;;;;;13.25;3.88;;;6.40;93.50;;;;;;5023579;28;20048;-72
2022/11/27 11:52:26;;;;;;;14.60;12.60;;;6.50;94.10;;;;;;5016907;28;20140;-72
2022/11/27 11:54:59;;;;;;;7.85;3.25;;;6.70;93.70;;;;;;5022952;28;20041;-72
2022/11/27 11:57:54;;;;;;;4.70;2.45;;;6.80;93.60;;;;;;5026553;28;20140;-72
2022/11/27 12:00:26;;;;;;;4.70;2.03;;;6.90;92.50;;;;;;5017192;28;20034;-72
2022/11/27 12:03:03;;;;;;;9.07;4.70;;;6.80;92.40;;;;;;5027330;28;20033;-72
2022/11/27 12:06:07;;;;;;;6.63;3.60;;;6.90;92.90;;;;;;5026082;28;20357;-72
2022/11/27 12:08:51;;;;;;;5.78;2.83;;;7.00;92.40;;;;;;5024079;28;20118;-72
2022/11/27 12:11:31;;;;;;;9.55;5.18;;;7.20;93.20;;;;;;5014137;28;20072;-72
2022/11/27 12:14:06;;;;;;;8.35;3.50;;;7.30;92.90;;;;;;5024130;28;20033;-72
2022/11/27 12:16:54;;;;;;;6.38;2.30;;;7.30;93.20;;;;;;5010907;28;20405;-72
2022/11/27 12:19:38;;;;;;;7.78;3.80;;;7.10;93.20;;;;;;5009882;28;20091;-72
2022/11/27 12:22:36;;;;;;;4.33;1.90;;;7.00;93.10;;;;;;5025575;28;20577;-72
2022/11/27 12:25:31;;;;;;;15.25;6.10;;;7.00;93.20;;;;;;5026168;28;20028;-71
2022/11/27 12:28:05;;;;;;;;;;;7.30;93.00;;;;;;5030196;28;20126;-72
2022/11/27 12:31:08;;;;;;;10.40;4.13;;;7.40;92.30;;;;;;5026370;28;19913;-72
2022/11/27 12:33:53;;;;;;;8.70;4.20;;;7.40;91.60;;;;;;5014042;28;20042;-73
2022/11/27 12:36:18;;;;;;;17.15;7.80;;;7.40;91.90;;;;;;5023265;28;20112;-72
2022/11/27 12:39:22;;;;;;;38.15;19.42;;;7.40;92.10;;;;;;5030359;28;20108;-72
2022/11/27 12:42:11;;;;;;;38.22;18.10;;;7.40;91.50;;;;;;4996798;28;20045;-72
2022/11/27 12:45:14;;;;;;;5.30;2.65;;;7.50;91.50;;;;;;5030520;28;20033;-72
2022/11/27 12:47:55;;;;;;;5.18;2.67;;;7.40;91.60;;;;;;5029622;28;20511;-73
2022/11/27 12:50:39;;;;;;;4.90;2.38;;;7.30;91.50;;;;;;5025840;28;20026;-72
2022/11/27 12:53:17;;;;;;;8.30;3.92;;;7.30;92.00;;;;;;5026221;28;20021;-72
2022/11/27 12:56:17;;;;;;;3.55;1.30;;;7.30;91.60;;;;;;5027266;28;20399;-72
2022/11/27 12:58:47;;;;;;;3.55;1.58;;;7.20;91.20;;;;;;5022281;28;20515;-72
2022/11/27 13:01:25;;;;;;;6.50;3.03;;;7.10;91.70;;;;;;5028731;28;20033;-72
2022/11/27 13:04:12;;;;;;;46.63;26.20;;;7.20;91.90;;;;;;5027997;28;20053;-72
2022/11/27 13:07:09;;;;;;;25.75;14.52;;;7.40;91.90;;;;;;5020901;28;20061;-72
2022/11/27 13:10:01;;;;;;;7.40;4.05;;;7.40;91.60;;;;;;5015271;28;20049;-72
2022/11/27 13:12:36;;;;;;;7.35;4.70;;;7.20;92.10;;;;;;5018378;28;20041;-72
2022/11/27 13:15:07;;;;;;;16.73;7.03;;;7.20;92.40;;;;;;5028222;28;20025;-72
2022/11/27 13:17:43;;;;;;;10.98;4.90;;;7.50;92.30;;;;;;5028875;28;20183;-72